• Join FlightAware (Why Join?)
  • Login
  • US Flag 
05:56AM EDT


 

Airport Tracker/Info


-or-


 

Live Flight TrackerFlight Track Log ✈ GJS6221 ✈ 26-Jun-2013 ✈ CYUL - KLGA

Flight Track Log - Related Links

Times and Time Zones

All times are in EDT time to prevent confusion due to time zone crossing. See the GJS6221 flight status page for this flight to view local times or setup timezone preferences in your user account.

Time Position Orientation Groundspeed Altitude Reporting Facility
EDT Latitude Longitude Course Direction KTS MPH feet Rate Location/Type
07:23AM 45.4497 -73.7536 181° South 442 509 1,800  Level Boston Center
07:24AM 45.4053 -73.8086 221° Southwest 355 409 4,300 2,820 Climbing Boston Center
07:25AM 45.3444 -73.8456 203° Southwest 265 305 7,500 3,300 Climbing Boston Center
07:26AM 45.2606 -73.8878 200° South 276 318 10,900 2,820 Climbing Boston Center
07:27AM 45.1706 -73.9122 191° South 307 353 13,200 2,460 Climbing Boston Center
07:28AM 44.6362 -73.7662 181° South  Level Estimated
07:28AM 45.0708 -73.9097 179° South 336 387 15,900  Level Boston Center
07:29AM 44.9689 -73.9011 177° South 353 406 18,100 2,220 Climbing Boston Center
07:30AM 44.8375 -73.8950 178° South 385 443 20,800 2,280 Climbing Boston Center
07:31AM 44.7375 -73.8925 179° South 393 452 22,700 1,620 Climbing Boston Center
07:32AM 44.6253 -73.8867 178° South 403 464 24,100 1,560 Climbing Boston Center
07:33AM 44.5106 -73.8811 178° South 403 464 25,900 1,740 Climbing Boston Center
07:34AM 44.3836 -73.8781 179° South 409 471 27,600 1,320 Climbing Boston Center
07:35AM 44.2608 -73.8719 178° South 420 483 28,600 1,020 Climbing Boston Center
07:36AM 44.1336 -73.8661 178° South 453 521 29,700 1,140 Climbing Boston Center
07:37AM 44.0089 -73.8603 178° South 459 528 30,900 960 Climbing Boston Center
07:38AM 43.8858 -73.8517 177° South 464 534 31,700 540 Climbing Boston Center
07:39AM 43.7567 -73.8458 178° South 464 534 32,000 120 Climbing Boston Center
07:40AM 43.6172 -73.8397 178° South 464 534 32,000 -60 Level Boston Center
07:41AM 43.4861 -73.8367 179° South 464 534 31,900 -540 Descending Boston Center
07:42AM 43.3694 -73.8311 178° South 464 534 31,000 -960 Descending Boston Center
07:43AM 43.2464 -73.8253 178° South 454 522 30,000 -1,020 Descending Boston Center
07:44AM 43.1214 -73.8225 179° South 454 522 29,000 -1,020 Descending Boston Center
07:45AM 42.9964 -73.8169 178° South 454 522 28,000 -1,080 Descending Boston Center
07:46AM 42.8694 -73.8111 178° South 459 528 26,900 -1,080 Descending Boston Center
07:47AM 42.7444 -73.8028 177° South 459 528 25,900 -1,020 Descending Boston Center
07:48AM 42.6217 -73.7831 173° South 459 528 24,900 -1,380 Descending Boston Center
07:49AM 42.4928 -73.7550 171° South 453 521 23,200 -1,860 Descending Boston Center
07:50AM 42.3722 -73.7300 171° South 442 509 21,200 -1,860 Descending Boston Center
07:51AM 42.2725 -73.7000 167° South 422 486 19,500 -1,140 Descending Boston Center
07:52AM 42.1475 -73.7003 180° South 417 480 19,000 -300 Descending Boston Center
07:53AM 42.0306 -73.7144 185° South 417 480 19,000 -540 Level Boston Center
07:54AM 41.9200 -73.7236 184° South 434 499 18,000 -1,140 Descending Boston Center
07:55AM 41.8261 -73.7356 185° South 434 499 16,800 -1,740 Descending Boston Center
07:56AM 41.6903 -73.7550 186° South 418 481 14,600 -2,400 Descending Boston Center
07:58AM 41.5333 -73.7667 183° South 369 425 11,300 -1,920 Descending New York TRACON
07:59AM 41.4500 -73.7833 189° South 296 341 10,300 -960 Descending New York TRACON
08:00AM 41.3833 -73.7833 180° South 277 319 9,500 -600 Descending New York TRACON
08:01AM 41.3000 -73.7667 171° South 295 339 9,100 -720 Descending New York TRACON
08:02AM 41.2333 -73.7000 143° Southeast 306 352 8,100 -1,200 Descending New York TRACON
08:03AM 41.1667 -73.6500 151° Southeast 294 338 6,700 -1,260 Descending New York TRACON
08:04AM 41.0833 -73.6333 171° South 283 326 5,600 -900 Descending New York TRACON
08:05AM 41.0167 -73.6833 210° Southwest 259 298 5,000 -720 Descending New York TRACON
08:06AM 40.9667 -73.7167 207° Southwest 254 292 4,200 -1,080 Descending New York TRACON
08:07AM 40.9000 -73.7667 210° Southwest 230 265 2,900 -1,260 Descending New York TRACON
08:08AM 40.8667 -73.8000 217° Southwest 192 221 1,900 -1,140 Descending New York TRACON